Main page
METAR-TAF:

METAR-TAF

Airports :

Savonlinna Airport

Savonlinna, Finland

latitude: 61-57N, longitude: 028-57E, elevation: 95 m

Current weather observation

The report was made 12 minutes ago, at 01:50 UTC
Wind 14 kt from the South with gusts up to 26 kt, varying between South/Southeast and South/Southwest
Temperature 2°C
Humidity 100%
Pressure 972 hPa
Visibility: 5000 m
Overcast at a height of 400 ft
light drizzle

METAR: EFSA 090150Z AUTO 18014G26KT 150V210 5000 -DZ OVC004 02/02 Q0972

Time: 04:02 (02:02 UTC)

Forecast

The report was made 11 hours and 24 minutes ago, at 14:38 UTC
Forecast valid from 08 at 15 UTC to 08 at 17 UTC
Wind 9 kt from the West/Southwest
Visibility 10 km or more
Broken clouds at a height of 2000 ft

TAF: EFSA 081438Z 0815/0817 25009KT 9999 BKN020

Weather observations and forecasts of more than 4000 airports (METAR and TAF reports).

The available stations are represented by yellow and red dots on the map.

Hover mouse over dot to see the name of the station.

Then click to see weather observations and forecasts.

To change the map : click on the green buttons with a black cross to zoom in, on the green button with a dash to zoom out, or on the green arrows for adjacent maps.


METAR-TAF: